Time;durP1;ratioP1;P1;durP2;ratioP2;P2;SDS_P1;SDS_P2;PMS_P1;PMS_P2;Temp;Humidity;BMP_temperature;BMP_pressure;BME280_temperature;BME280_humidity;BME280_pressure;Samples;Min_cycle;Max_cycle;Signal;HPM_P1;HPM_P2
2022/12/06 00:01:37;;;;;;;12.55;5.55;;;5.50;99.90;;;;;;4976258;28;20082;-86
2022/12/06 00:04:06;;;;;;;14.63;4.93;;;5.50;99.90;;;;;;4974974;28;20447;-87
2022/12/06 00:06:36;;;;;;;14.30;5.10;;;5.50;99.90;;;;;;4992226;28;20524;-86
2022/12/06 00:09:02;;;;;;;10.93;4.93;;;5.50;99.90;;;;;;4976634;28;20050;-85
2022/12/06 00:11:33;;;;;;;9.25;4.88;;;5.50;99.90;;;;;;4970785;28;20046;-86
2022/12/06 00:14:02;;;;;;;12.15;4.97;;;5.50;99.90;;;;;;4976218;28;20104;-86
2022/12/06 00:16:29;;;;;;;9.90;5.07;;;5.50;99.90;;;;;;4977060;28;20053;-86
2022/12/06 00:18:56;;;;;;;9.52;4.50;;;5.50;99.90;;;;;;4960731;28;20095;-86
2022/12/06 00:21:27;;;;;;;10.73;4.82;;;5.50;99.90;;;;;;4961040;28;20045;-86
2022/12/06 00:23:59;;;;;;;9.85;5.13;;;5.50;99.90;;;;;;5009242;28;20391;-86
2022/12/06 00:26:26;;;;;;;10.23;4.80;;;5.50;99.90;;;;;;4993346;28;20047;-86
2022/12/06 00:28:54;;;;;;;11.88;4.80;;;5.50;99.90;;;;;;4994819;28;20050;-86
2022/12/06 00:31:21;;;;;;;9.13;4.28;;;5.50;99.90;;;;;;4953420;28;20042;-86
2022/12/06 00:33:47;;;;;;;13.18;4.18;;;5.50;99.90;;;;;;5019195;28;20043;-86
2022/12/06 00:36:17;;;;;;;9.77;4.57;;;5.50;99.90;;;;;;5017178;28;20023;-86
2022/12/06 00:38:44;;;;;;;13.30;4.82;;;5.50;99.90;;;;;;4979016;28;20097;-86
2022/12/06 00:41:12;;;;;;;13.75;4.47;;;5.50;99.90;;;;;;4996767;28;20364;-86
2022/12/06 00:43:38;;;;;;;10.95;4.53;;;5.50;99.90;;;;;;4979857;28;20050;-86
2022/12/06 00:46:07;;;;;;;13.38;4.70;;;5.50;99.90;;;;;;4947726;28;20181;-87
2022/12/06 00:48:34;;;;;;;13.77;5.28;;;5.50;99.90;;;;;;4978445;28;20042;-86
2022/12/06 00:50:59;;;;;;;14.65;5.22;;;5.50;99.90;;;;;;4995619;28;20090;-86
2022/12/06 00:53:26;;;;;;;11.40;4.75;;;5.50;99.90;;;;;;4970073;28;20073;-86
2022/12/06 00:55:53;;;;;;;12.82;5.35;;;5.50;99.90;;;;;;4996878;28;20096;-86
2022/12/06 00:58:20;;;;;;;16.58;4.72;;;5.50;99.90;;;;;;4979576;28;20081;-86
2022/12/06 01:00:46;;;;;;;12.30;5.03;;;5.50;99.90;;;;;;4995192;28;20495;-86
2022/12/06 01:03:12;;;;;;;10.90;5.00;;;5.50;99.90;;;;;;4995350;28;20561;-86
2022/12/06 01:05:42;;;;;;;11.10;4.90;;;5.50;99.90;;;;;;4979383;28;20073;-86
2022/12/06 01:08:08;;;;;;;11.23;5.00;;;5.50;99.90;;;;;;4963547;28;20046;-86
2022/12/06 01:10:35;;;;;;;12.27;4.80;;;5.50;99.90;;;;;;4995121;28;20550;-86
2022/12/06 01:13:01;;;;;;;11.80;5.28;;;6.70;99.90;;;;;;4963076;28;20112;-86
2022/12/06 01:15:26;;;;;;;14.32;4.90;;;6.60;99.90;;;;;;4991995;28;20043;-86
2022/12/06 01:17:52;;;;;;;10.73;4.53;;;5.50;99.90;;;;;;4963250;28;20050;-86
2022/12/06 01:20:18;;;;;;;11.77;4.88;;;6.60;99.90;;;;;;4946304;28;20050;-86
2022/12/06 01:22:43;;;;;;;8.35;4.75;;;5.60;99.90;;;;;;4994805;28;20438;-86
2022/12/06 01:25:09;;;;;;;11.48;5.18;;;5.50;99.90;;;;;;4947427;28;20126;-86
2022/12/06 01:27:36;;;;;;;13.82;4.88;;;5.50;99.90;;;;;;4995289;28;20505;-86
2022/12/06 01:30:02;;;;;;;9.10;4.53;;;5.60;99.90;;;;;;4963578;28;20097;-85
2022/12/06 01:32:29;;;;;;;14.82;4.60;;;5.50;99.90;;;;;;4980088;28;20422;-86
2022/12/06 01:34:55;;;;;;;16.13;5.25;;;5.80;99.90;;;;;;4979780;28;20600;-86
2022/12/06 01:37:21;;;;;;;9.20;4.80;;;5.50;99.90;;;;;;5000460;28;20050;-86
2022/12/06 01:39:46;;;;;;;13.20;5.05;;;6.40;99.90;;;;;;5000845;28;20476;-86
2022/12/06 01:42:13;;;;;;;10.05;4.90;;;6.20;99.90;;;;;;4965355;28;20564;-86
2022/12/06 01:44:58;;;;;;;9.93;4.82;;;5.50;99.90;;;;;;4979631;28;20039;-86
2022/12/06 01:47:30;;;;;;;11.32;4.43;;;5.50;99.90;;;;;;4962974;28;20392;-86
2022/12/06 01:50:06;;;;;;;10.30;4.18;;;5.50;99.90;;;;;;4978043;28;20042;-85
2022/12/06 01:52:41;;;;;;;9.32;4.43;;;5.50;99.90;;;;;;4978604;28;20148;-86
2022/12/06 01:55:11;;;;;;;9.83;4.47;;;5.40;99.90;;;;;;4994410;28;20046;-86
2022/12/06 01:57:36;;;;;;;13.52;4.57;;;5.40;99.90;;;;;;4995030;28;20046;-86
2022/12/06 02:00:03;;;;;;;13.60;4.47;;;5.90;99.90;;;;;;4978649;28;20045;-85
2022/12/06 02:02:29;;;;;;;11.38;4.28;;;5.40;99.90;;;;;;4962292;28;20406;-86
2022/12/06 02:04:56;;;;;;;9.32;4.05;;;5.40;99.90;;;;;;4962040;28;20042;-85
2022/12/06 02:07:23;;;;;;;10.70;4.57;;;5.40;99.90;;;;;;4994541;28;20040;-86
2022/12/06 02:09:50;;;;;;;7.32;4.03;;;6.50;99.90;;;;;;4978027;28;20051;-85
2022/12/06 02:12:16;;;;;;;10.10;4.13;;;5.40;99.90;;;;;;4973215;28;20042;-86
2022/12/06 02:14:46;;;;;;;7.97;4.50;;;5.40;99.90;;;;;;4972371;28;20145;-86
2022/12/06 02:17:23;;;;;;;9.45;4.22;;;5.40;99.90;;;;;;4977774;28;20046;-86
2022/12/06 02:20:16;;;;;;;13.45;4.28;;;5.40;99.90;;;;;;4977104;28;20050;-86
2022/12/06 02:23:11;;;;;;;9.77;4.07;;;5.30;99.90;;;;;;4994239;28;20050;-86
2022/12/06 02:26:04;;;;;;;9.82;3.75;;;5.40;99.90;;;;;;4988076;28;20053;-86
2022/12/06 02:29:00;;;;;;;8.90;4.05;;;5.40;99.90;;;;;;4994322;28;20394;-86
2022/12/06 02:32:05;;;;;;;5.32;3.67;;;5.30;99.90;;;;;;4994142;28;20118;-86
2022/12/06 02:34:33;;;;;;;9.95;4.07;;;5.30;99.90;;;;;;4970840;28;20057;-86
2022/12/06 02:37:09;;;;;;;13.18;4.20;;;5.30;99.90;;;;;;4991224;28;20132;-86
2022/12/06 02:39:47;;;;;;;10.55;4.22;;;5.30;99.90;;;;;;4977415;28;20034;-86
2022/12/06 02:42:19;;;;;;;11.27;3.78;;;5.30;99.90;;;;;;4968974;28;20097;-86
2022/12/06 02:44:58;;;;;;;7.15;4.03;;;5.30;99.90;;;;;;4993658;28;20125;-86
2022/12/06 02:47:30;;;;;;;10.18;4.25;;;5.50;99.90;;;;;;4993882;28;20092;-86
2022/12/06 02:49:57;;;;;;;8.38;3.63;;;5.40;99.90;;;;;;4988673;28;20046;-86
2022/12/06 02:52:26;;;;;;;7.68;3.75;;;5.30;99.90;;;;;;4949855;28;20470;-86
2022/12/06 02:54:56;;;;;;;8.13;3.90;;;5.30;99.90;;;;;;4977453;28;20105;-86
2022/12/06 02:57:44;;;;;;;8.10;4.10;;;5.50;99.90;;;;;;4977381;28;20070;-86
2022/12/06 03:00:37;;;;;;;6.55;3.65;;;6.30;99.90;;;;;;4994029;28;20042;-86
2022/12/06 03:03:30;;;;;;;6.07;3.58;;;5.20;99.90;;;;;;4977294;28;20046;-86
2022/12/06 03:06:07;;;;;;;9.15;3.38;;;5.20;99.90;;;;;;4971114;28;20402;-86
2022/12/06 03:08:48;;;;;;;7.10;3.50;;;5.20;99.90;;;;;;4977772;28;20125;-86
2022/12/06 03:11:14;;;;;;;10.48;3.30;;;5.20;99.90;;;;;;4993090;28;20053;-86
2022/12/06 03:14:06;;;;;;;7.07;3.05;;;6.20;99.90;;;;;;4960802;28;20054;-86
2022/12/06 03:16:41;;;;;;;13.27;3.60;;;5.20;99.90;;;;;;4993441;28;20049;-85
2022/12/06 03:19:18;;;;;;;7.20;3.30;;;5.20;99.90;;;;;;4993214;28;20074;-86
2022/12/06 03:21:51;;;;;;;8.60;2.80;;;5.20;99.90;;;;;;4969780;28;20345;-86
2022/12/06 03:24:21;;;;;;;8.90;3.83;;;5.20;99.90;;;;;;5007163;28;20047;-86
2022/12/06 03:26:49;;;;;;;5.55;2.92;;;5.20;99.90;;;;;;4992128;28;20035;-86
2022/12/06 03:29:18;;;;;;;13.25;3.03;;;5.20;99.90;;;;;;4991567;28;20050;-86
2022/12/06 03:31:45;;;;;;;8.40;3.35;;;5.20;99.90;;;;;;4977282;28;20046;-87
2022/12/06 03:34:17;;;;;;;9.18;3.45;;;5.20;99.90;;;;;;4993108;28;20049;-86
2022/12/06 03:36:45;;;;;;;6.18;2.90;;;5.20;99.90;;;;;;4993569;28;20394;-86
2022/12/06 03:39:18;;;;;;;6.25;2.97;;;5.20;99.90;;;;;;4978057;28;20046;-85
2022/12/06 03:42:02;;;;;;;6.00;2.88;;;6.00;99.90;;;;;;4977615;28;20364;-86
2022/12/06 03:44:28;;;;;;;7.88;3.17;;;5.20;99.90;;;;;;4993422;28;20518;-85
2022/12/06 03:47:01;;;;;;;8.70;2.90;;;5.30;99.90;;;;;;4993806;28;20038;-85
2022/12/06 03:49:44;;;;;;;6.32;2.85;;;5.20;99.90;;;;;;4993346;28;20045;-85
2022/12/06 03:52:09;;;;;;;5.25;3.13;;;5.20;99.90;;;;;;4993618;28;20039;-86
2022/12/06 03:54:41;;;;;;;5.85;2.50;;;5.20;99.90;;;;;;4993372;28;20042;-85
2022/12/06 03:57:06;;;;;;;6.63;3.03;;;5.20;99.90;;;;;;4990411;28;20039;-86
2022/12/06 03:59:32;;;;;;;5.18;2.95;;;5.10;99.90;;;;;;4958445;28;20139;-86
2022/12/06 04:01:58;;;;;;;4.78;2.58;;;6.30;99.90;;;;;;4973860;28;20510;-86
2022/12/06 04:04:24;;;;;;;8.27;2.92;;;6.00;99.90;;;;;;4976491;28;20125;-85
2022/12/06 04:06:50;;;;;;;8.27;3.20;;;5.70;99.90;;;;;;4949078;28;20042;-86
2022/12/06 04:12:01;;;;;;;4.72;2.58;;;5.10;99.90;;;;;;4983531;28;20038;-86
2022/12/06 04:14:31;;;;;;;5.07;2.40;;;5.90;99.90;;;;;;4965686;28;20039;-86
2022/12/06 04:19:42;;;;;;;5.70;2.70;;;5.60;99.90;;;;;;5021545;28;20057;-85
2022/12/06 04:24:52;;;;;;;8.65;2.60;;;5.00;99.90;;;;;;4983643;28;20532;-86
2022/12/06 04:41:00;;;;;;;5.78;2.75;;;5.00;99.90;;;;;;4975597;28;20058;-86
2022/12/06 04:43:43;;;;;;;6.32;2.50;;;5.00;99.90;;;;;;4990710;28;20410;-85
2022/12/06 04:46:11;;;;;;;6.65;2.65;;;5.10;99.90;;;;;;4975381;28;20035;-86
2022/12/06 04:48:38;;;;;;;6.32;2.63;;;6.00;99.90;;;;;;4997511;28;20088;-86
2022/12/06 04:51:04;;;;;;;10.23;2.65;;;5.90;99.90;;;;;;4997548;28;20038;-85
2022/12/06 04:53:30;;;;;;;6.47;2.95;;;5.00;99.90;;;;;;4964709;28;20050;-86
2022/12/06 04:55:55;;;;;;;3.95;2.55;;;5.20;99.90;;;;;;4948152;28;20043;-85
2022/12/06 04:58:21;;;;;;;6.55;3.03;;;5.80;99.90;;;;;;4980094;28;20521;-85
2022/12/06 05:00:50;;;;;;;6.60;2.80;;;5.00;99.90;;;;;;4979950;28;20406;-86
2022/12/06 05:03:15;;;;;;;5.60;2.90;;;4.90;99.90;;;;;;4996160;28;20050;-86
2022/12/06 05:05:41;;;;;;;6.72;2.60;;;4.90;99.90;;;;;;4947771;28;20371;-86
2022/12/06 05:08:08;;;;;;;6.45;2.70;;;4.90;99.90;;;;;;4979877;28;20189;-86
2022/12/06 05:10:34;;;;;;;6.13;2.83;;;5.00;99.90;;;;;;4963773;28;20150;-86
2022/12/06 05:13:00;;;;;;;5.57;2.72;;;4.90;99.90;;;;;;4980504;28;20065;-86
2022/12/06 05:15:25;;;;;;;5.85;2.63;;;5.70;99.90;;;;;;4995340;28;20491;-86
2022/12/06 05:17:51;;;;;;;6.22;2.97;;;5.70;99.90;;;;;;4996533;28;20038;-86
2022/12/06 05:20:18;;;;;;;6.43;3.03;;;4.80;99.90;;;;;;4979905;28;20038;-86
2022/12/06 05:22:44;;;;;;;5.88;2.80;;;4.70;99.90;;;;;;4995907;28;20038;-85
2022/12/06 05:25:10;;;;;;;8.95;3.55;;;4.70;99.90;;;;;;4985511;28;20046;-86
2022/12/06 05:27:35;;;;;;;4.63;2.85;;;4.70;99.90;;;;;;4976578;28;20045;-85
2022/12/06 05:30:01;;;;;;;7.72;3.40;;;4.70;99.90;;;;;;4944283;28;20054;-85
2022/12/06 05:32:27;;;;;;;9.55;3.00;;;4.70;99.90;;;;;;4976553;28;20164;-85
2022/12/06 05:34:52;;;;;;;6.47;3.25;;;5.10;99.90;;;;;;4960604;28;20043;-85
2022/12/06 05:37:18;;;;;;;7.38;3.00;;;4.60;99.90;;;;;;4943999;28;20113;-85
2022/12/06 05:39:44;;;;;;;7.40;3.28;;;4.60;99.90;;;;;;4932571;28;20046;-85
2022/12/06 05:42:09;;;;;;;4.90;2.78;;;4.70;99.90;;;;;;4962477;28;20054;-86
2022/12/06 05:44:35;;;;;;;4.97;3.00;;;4.60;99.90;;;;;;4976127;28;20043;-85
2022/12/06 05:47:01;;;;;;;5.88;3.10;;;4.60;99.90;;;;;;4960512;28;20049;-85
2022/12/06 05:49:27;;;;;;;9.45;3.47;;;4.60;99.90;;;;;;4944613;28;20038;-85
2022/12/06 05:51:52;;;;;;;6.88;3.30;;;5.50;99.90;;;;;;4960287;28;20047;-85
2022/12/06 05:54:19;;;;;;;8.43;3.42;;;4.60;99.90;;;;;;4991024;28;20038;-86
2022/12/06 05:56:45;;;;;;;6.57;3.03;;;4.60;99.90;;;;;;4980050;28;20038;-86
2022/12/06 05:59:10;;;;;;;8.60;3.28;;;5.80;99.90;;;;;;4963149;28;20375;-86
2022/12/06 06:01:36;;;;;;;6.28;3.47;;;5.70;99.90;;;;;;4947105;28;20451;-84
2022/12/06 06:04:02;;;;;;;11.82;3.63;;;4.90;99.90;;;;;;4979373;28;20041;-86
2022/12/06 06:06:28;;;;;;;7.88;3.42;;;4.60;99.90;;;;;;4979192;28;20446;-86
2022/12/06 06:08:53;;;;;;;8.00;3.65;;;4.60;99.90;;;;;;4962891;28;20043;-86
2022/12/06 06:11:19;;;;;;;7.00;3.50;;;4.70;99.90;;;;;;4978660;28;20091;-86
2022/12/06 06:13:45;;;;;;;8.68;3.60;;;4.60;99.90;;;;;;4963204;28;20078;-85
2022/12/06 06:16:11;;;;;;;5.88;3.33;;;5.00;99.90;;;;;;4995448;28;20073;-85
2022/12/06 06:18:37;;;;;;;6.32;3.47;;;4.70;99.90;;;;;;4962573;28;20120;-86
2022/12/06 06:21:03;;;;;;;6.47;3.50;;;4.90;99.90;;;;;;4979181;28;20042;-85
2022/12/06 06:23:29;;;;;;;9.65;3.72;;;4.70;99.90;;;;;;4975895;28;20043;-86
2022/12/06 06:25:54;;;;;;;4.57;3.55;;;5.50;99.90;;;;;;4959220;28;20049;-85
2022/12/06 06:28:21;;;;;;;8.32;3.83;;;4.60;99.90;;;;;;4927671;28;20050;-86
2022/12/06 06:30:46;;;;;;;4.47;2.95;;;5.10;99.90;;;;;;4975787;28;20125;-85
2022/12/06 06:33:13;;;;;;;5.43;3.22;;;4.60;99.90;;;;;;4959391;28;20078;-85
2022/12/06 06:35:40;;;;;;;6.57;3.72;;;4.60;99.90;;;;;;4960163;28;20039;-85
2022/12/06 06:38:07;;;;;;;8.70;3.80;;;5.30;99.90;;;;;;4994108;28;20487;-84
2022/12/06 06:40:33;;;;;;;7.97;3.63;;;4.60;99.90;;;;;;4994684;28;20101;-86
2022/12/06 06:43:16;;;;;;;6.15;3.38;;;4.60;99.90;;;;;;4978837;28;20061;-87
2022/12/06 06:45:55;;;;;;;6.38;3.13;;;4.60;99.90;;;;;;4978334;28;20121;-86
2022/12/06 06:48:22;;;;;;;6.10;3.47;;;4.60;99.90;;;;;;4977698;28;20513;-85
2022/12/06 06:50:47;;;;;;;6.95;3.33;;;4.60;99.90;;;;;;4956952;28;20034;-86
2022/12/06 06:53:13;;;;;;;6.43;2.90;;;4.50;99.90;;;;;;4974388;28;20121;-86
2022/12/06 06:55:39;;;;;;;6.05;3.08;;;4.70;99.90;;;;;;4947298;28;20074;-89
2022/12/06 06:58:05;;;;;;;5.30;3.22;;;5.00;99.90;;;;;;4977650;28;20038;-89
2022/12/06 07:00:34;;;;;;;6.15;3.15;;;4.50;99.90;;;;;;4990068;28;20097;-87
2022/12/06 07:03:00;;;;;;;5.05;2.83;;;4.60;99.90;;;;;;4987617;28;20522;-87
2022/12/06 07:05:26;;;;;;;4.75;3.10;;;4.50;99.90;;;;;;4993683;28;20076;-86
2022/12/06 07:07:53;;;;;;;5.55;2.72;;;4.40;99.90;;;;;;4962331;28;20098;-85
2022/12/06 07:10:19;;;;;;;6.38;2.90;;;4.90;99.90;;;;;;4958339;28;20055;-85
2022/12/06 07:12:45;;;;;;;5.40;3.10;;;4.40;99.90;;;;;;4979931;28;20376;-85
2022/12/06 07:15:11;;;;;;;7.00;3.08;;;4.30;99.90;;;;;;4975170;28;20542;-87
2022/12/06 07:17:36;;;;;;;5.38;3.50;;;4.30;99.90;;;;;;4994726;28;20046;-87
2022/12/06 07:20:03;;;;;;;6.15;3.22;;;4.30;99.90;;;;;;4978390;28;20045;-83
2022/12/06 07:22:30;;;;;;;5.60;3.28;;;4.20;99.90;;;;;;4978379;28;20190;-86
2022/12/06 07:24:55;;;;;;;8.13;3.17;;;4.20;99.90;;;;;;4993821;28;20042;-85
2022/12/06 07:27:21;;;;;;;5.40;3.38;;;4.70;99.90;;;;;;4977934;28;20030;-86
2022/12/06 07:29:47;;;;;;;5.85;3.60;;;4.00;99.90;;;;;;4979844;28;20046;-86
2022/12/06 07:32:13;;;;;;;7.38;3.65;;;5.10;99.90;;;;;;4990464;28;20050;-86
2022/12/06 07:34:38;;;;;;;6.05;4.05;;;5.40;99.90;;;;;;4984739;28;20045;-87
2022/12/06 07:37:05;;;;;;;8.35;3.92;;;3.90;99.90;;;;;;4972915;28;20113;-86
2022/12/06 07:39:31;;;;;;;6.72;3.60;;;4.90;99.90;;;;;;4987739;28;20080;-89
2022/12/06 07:47:25;;;;;;;9.95;3.78;;;3.80;99.90;;;;;;4983617;28;20039;-90
2022/12/06 07:49:54;;;;;;;7.47;4.10;;;3.70;99.90;;;;;;4979459;28;20038;-86
2022/12/06 07:52:20;;;;;;;7.78;4.10;;;3.70;99.90;;;;;;4981590;28;20049;-86
2022/12/06 07:54:46;;;;;;;6.80;3.80;;;3.70;99.90;;;;;;4989182;28;20105;-88
2022/12/06 07:57:12;;;;;;;14.15;5.28;;;3.90;99.90;;;;;;4966141;28;20081;-88
2022/12/06 07:59:37;;;;;;;10.23;3.90;;;3.60;99.90;;;;;;5004400;28;20041;-88
2022/12/06 08:02:03;;;;;;;7.85;4.10;;;3.60;99.90;;;;;;4999557;28;20026;-88
2022/12/06 08:04:29;;;;;;;6.70;3.75;;;3.50;99.90;;;;;;5000676;28;20054;-87
2022/12/06 08:06:55;;;;;;;7.03;3.67;;;3.50;99.90;;;;;;5005328;28;20047;-89
2022/12/06 08:09:21;;;;;;;6.18;3.97;;;3.50;99.90;;;;;;4974852;28;20129;-88
2022/12/06 08:11:47;;;;;;;8.88;3.60;;;3.50;99.90;;;;;;4948718;28;20042;-88
2022/12/06 08:14:13;;;;;;;6.28;3.92;;;3.50;99.90;;;;;;4995271;28;20063;-88
2022/12/06 08:16:40;;;;;;;6.97;4.30;;;3.50;99.90;;;;;;4996389;28;20092;-87
2022/12/06 08:19:06;;;;;;;12.07;5.13;;;3.60;99.90;;;;;;4996607;28;20386;-89
2022/12/06 08:21:31;;;;;;;7.70;4.13;;;3.70;99.90;;;;;;4979473;28;20053;-89
2022/12/06 08:23:57;;;;;;;10.48;4.40;;;3.70;99.90;;;;;;4988783;28;20046;-87
2022/12/06 08:26:23;;;;;;;11.85;4.80;;;4.20;99.90;;;;;;4942452;28;20134;-86
2022/12/06 08:28:49;;;;;;;11.25;4.78;;;3.80;99.90;;;;;;4964919;28;20047;-87
2022/12/06 08:31:18;;;;;;;9.52;4.50;;;3.80;99.90;;;;;;4978582;28;20054;-88
2022/12/06 08:33:45;;;;;;;7.88;3.58;;;4.30;99.90;;;;;;4993990;28;20046;-87
2022/12/06 08:36:14;;;;;;;7.75;3.80;;;3.80;99.90;;;;;;4989760;28;20046;-88
2022/12/06 08:38:40;;;;;;;7.28;3.85;;;3.80;99.90;;;;;;4970976;28;20129;-89
2022/12/06 08:43:51;;;;;;;8.10;3.80;;;4.10;99.90;;;;;;4994236;28;20129;-88
2022/12/06 08:46:17;;;;;;;6.07;3.50;;;4.00;99.90;;;;;;4945929;28;20077;-87
2022/12/06 08:48:42;;;;;;;7.25;3.65;;;4.00;99.90;;;;;;4977727;28;20065;-87
2022/12/06 08:51:08;;;;;;;7.38;3.47;;;4.10;99.90;;;;;;4982008;28;20402;-87
2022/12/06 08:53:34;;;;;;;5.90;2.60;;;4.10;99.90;;;;;;4965074;28;20486;-87
2022/12/06 08:55:59;;;;;;;6.82;2.67;;;4.20;99.90;;;;;;4948983;28;20050;-87
2022/12/06 08:58:25;;;;;;;5.30;2.65;;;4.20;99.90;;;;;;4949908;28;20530;-87
2022/12/06 09:00:51;;;;;;;6.03;2.53;;;5.70;99.90;;;;;;4982535;28;20061;-87
2022/12/06 09:03:16;;;;;;;6.25;2.50;;;4.20;99.90;;;;;;4980511;28;20042;-88
2022/12/06 09:05:42;;;;;;;6.75;2.58;;;4.30;99.90;;;;;;4996961;28;20046;-87
2022/12/06 09:08:08;;;;;;;7.57;2.70;;;4.40;99.90;;;;;;4997657;28;20038;-87
2022/12/06 09:10:33;;;;;;;4.80;2.78;;;4.50;99.90;;;;;;4996899;28;20490;-87
2022/12/06 09:12:59;;;;;;;5.40;2.55;;;4.50;99.90;;;;;;4980932;28;20141;-87
2022/12/06 09:15:25;;;;;;;4.85;2.25;;;4.60;99.90;;;;;;4980470;28;20398;-87
2022/12/06 09:17:50;;;;;;;3.50;2.30;;;5.20;99.90;;;;;;4977293;28;20722;-87
2022/12/06 09:20:16;;;;;;;5.00;2.50;;;5.20;99.90;;;;;;4962047;28;20043;-87
2022/12/06 09:22:43;;;;;;;7.65;2.50;;;5.60;99.90;;;;;;4961429;28;20056;-87
2022/12/06 09:25:09;;;;;;;5.80;2.30;;;5.70;99.90;;;;;;4945442;28;20035;-87
2022/12/06 09:27:35;;;;;;;5.45;2.33;;;5.80;99.90;;;;;;4961546;28;20093;-87
2022/12/06 09:30:01;;;;;;;6.43;2.30;;;5.70;99.90;;;;;;4945183;28;20039;-87
2022/12/06 09:32:27;;;;;;;6.35;2.20;;;5.70;99.90;;;;;;4989246;28;20042;-87
2022/12/06 09:34:52;;;;;;;6.28;2.70;;;5.60;99.90;;;;;;4964128;28;20046;-87
2022/12/06 09:37:18;;;;;;;7.18;2.60;;;5.50;99.90;;;;;;4964715;28;20140;-89
2022/12/06 09:39:57;;;;;;;7.40;2.72;;;5.40;99.90;;;;;;4964129;28;20046;-85
2022/12/06 09:42:37;;;;;;;4.38;1.90;;;6.60;99.90;;;;;;4975877;28;20043;-85
2022/12/06 09:45:09;;;;;;;6.50;2.00;;;5.30;99.90;;;;;;4991834;28;20038;-85
2022/12/06 09:48:07;;;;;;;4.50;2.30;;;5.30;99.90;;;;;;4977244;28;20052;-85
2022/12/06 09:50:38;;;;;;;3.40;2.17;;;5.30;99.90;;;;;;4979529;28;20115;-84
2022/12/06 09:53:04;;;;;;;5.70;2.60;;;5.30;99.90;;;;;;4979606;28;20030;-87
2022/12/06 09:55:51;;;;;;;6.88;2.63;;;6.10;99.90;;;;;;4978809;28;20511;-85
2022/12/06 09:58:29;;;;;;;4.72;2.40;;;5.40;99.90;;;;;;4978602;28;20096;-85
2022/12/06 10:01:15;;;;;;;5.80;2.53;;;5.40;99.90;;;;;;4990667;28;20031;-84
2022/12/06 10:03:58;;;;;;;10.57;3.45;;;5.40;99.90;;;;;;4959279;28;20050;-84
2022/12/06 10:06:32;;;;;;;8.32;3.72;;;5.40;99.90;;;;;;4975973;28;20109;-84
2022/12/06 10:09:18;;;;;;;5.88;2.72;;;6.30;99.90;;;;;;4960539;28;20043;-84
2022/12/06 10:12:09;;;;;;;6.55;2.70;;;5.50;99.90;;;;;;4959810;28;20117;-84
2022/12/06 10:15:03;;;;;;;11.32;4.00;;;5.50;99.90;;;;;;4960318;28;20089;-85
2022/12/06 10:17:40;;;;;;;9.50;3.30;;;5.60;99.90;;;;;;4994728;28;20082;-86
2022/12/06 10:20:23;;;;;;;6.70;3.50;;;5.80;99.90;;;;;;4994675;28;20049;-84
2022/12/06 10:22:54;;;;;;;4.97;2.95;;;6.30;99.90;;;;;;4979546;28;20048;-83
2022/12/06 10:25:33;;;;;;;5.55;2.70;;;6.00;99.90;;;;;;4994790;28;20046;-84
2022/12/06 10:28:37;;;;;;;7.28;2.65;;;6.20;99.90;;;;;;4975547;28;20105;-84
2022/12/06 10:31:26;;;;;;;9.02;3.47;;;6.40;99.90;;;;;;4952967;28;20050;-84
2022/12/06 10:34:08;;;;;;;4.50;2.38;;;6.30;99.90;;;;;;4975653;28;20046;-84
2022/12/06 10:36:34;;;;;;;4.82;2.60;;;6.30;99.90;;;;;;4986598;28;20173;-84
2022/12/06 10:39:10;;;;;;;6.95;2.25;;;6.30;99.90;;;;;;4978416;28;20050;-84
2022/12/06 10:41:43;;;;;;;7.47;2.72;;;6.40;99.90;;;;;;4995258;28;20042;-86
2022/12/06 10:44:19;;;;;;;8.90;3.13;;;6.30;99.90;;;;;;4994100;28;20038;-86
2022/12/06 10:47:05;;;;;;;6.40;2.27;;;6.30;99.90;;;;;;4992177;28;20043;-85
2022/12/06 10:49:40;;;;;;;6.80;2.20;;;6.40;99.90;;;;;;4976239;28;20288;-85
2022/12/06 10:52:33;;;;;;;4.72;2.13;;;6.40;99.90;;;;;;4960473;28;20043;-85
2022/12/06 10:55:08;;;;;;;4.38;2.60;;;6.50;99.90;;;;;;4960980;28;20313;-84
2022/12/06 10:57:45;;;;;;;5.95;2.50;;;6.60;99.90;;;;;;4983324;28;20046;-85
2022/12/06 11:00:14;;;;;;;8.30;2.60;;;6.60;99.90;;;;;;4977221;28;20042;-87
2022/12/06 11:02:50;;;;;;;8.82;2.67;;;6.50;99.90;;;;;;4978000;28;20046;-89
2022/12/06 11:05:29;;;;;;;6.60;2.45;;;6.50;99.90;;;;;;4991801;28;20038;-87
2022/12/06 11:08:04;;;;;;;8.13;2.53;;;6.50;99.90;;;;;;5010185;28;20086;-87
2022/12/06 11:10:33;;;;;;;8.15;2.20;;;6.50;99.90;;;;;;5019653;28;20054;-87
2022/12/06 11:13:24;;;;;;;6.13;2.03;;;6.40;99.90;;;;;;4987226;28;20410;-88
2022/12/06 11:16:23;;;;;;;5.57;1.90;;;6.40;99.90;;;;;;4997531;28;20050;-88
2022/12/06 11:18:49;;;;;;;4.38;2.05;;;6.40;99.90;;;;;;4980419;28;20034;-87
2022/12/06 11:21:33;;;;;;;5.30;2.10;;;6.40;99.90;;;;;;4997579;28;20049;-88
2022/12/06 11:24:02;;;;;;;6.97;2.03;;;6.50;99.90;;;;;;4982058;28;20100;-88
2022/12/06 11:27:07;;;;;;;7.00;2.97;;;6.40;99.90;;;;;;4978095;28;20042;-87
2022/12/06 11:29:33;;;;;;;7.70;2.20;;;6.50;99.90;;;;;;4979378;28;20065;-84
2022/12/06 11:32:06;;;;;;;5.80;2.20;;;6.40;99.90;;;;;;4994975;28;20046;-84
2022/12/06 11:34:52;;;;;;;5.68;2.10;;;6.40;99.90;;;;;;4963138;28;20045;-84
2022/12/06 11:37:21;;;;;;;4.63;2.33;;;6.40;99.90;;;;;;4977917;28;20046;-84
2022/12/06 11:40:00;;;;;;;7.07;2.45;;;7.30;99.90;;;;;;4974429;28;20392;-84
2022/12/06 11:42:26;;;;;;;7.60;2.72;;;6.50;99.90;;;;;;4975104;28;20043;-85
2022/12/06 11:45:20;;;;;;;5.45;2.40;;;6.60;99.90;;;;;;4958415;28;20127;-85
2022/12/06 11:47:46;;;;;;;6.88;2.30;;;6.60;99.90;;;;;;4998570;28;20042;-84
2022/12/06 11:50:16;;;;;;;5.35;2.17;;;6.60;99.90;;;;;;4996886;28;20065;-84
2022/12/06 11:52:54;;;;;;;6.03;2.30;;;6.60;99.90;;;;;;5007021;28;20053;-85
2022/12/06 11:55:21;;;;;;;5.22;2.30;;;6.60;99.90;;;;;;4980534;28;20038;-83
2022/12/06 11:58:26;;;;;;;6.20;2.30;;;6.60;99.90;;;;;;4984006;28;20035;-84
2022/12/06 12:01:00;;;;;;;5.20;2.50;;;6.60;99.90;;;;;;4879067;29;20041;-86
2022/12/06 12:03:35;;;;;;;7.35;2.67;;;6.60;99.90;;;;;;4977186;28;20049;-86
2022/12/06 12:06:06;;;;;;;7.10;2.40;;;6.40;99.90;;;;;;4978369;28;20038;-86
2022/12/06 12:08:32;;;;;;;3.42;1.92;;;6.60;99.90;;;;;;4975193;28;20129;-85
2022/12/06 12:11:01;;;;;;;5.25;2.03;;;6.70;99.90;;;;;;4964705;28;20376;-85
2022/12/06 12:13:43;;;;;;;3.88;2.10;;;6.70;99.90;;;;;;4974618;28;20051;-85
2022/12/06 12:16:29;;;;;;;8.82;2.17;;;6.80;99.90;;;;;;4960561;28;20039;-85
2022/12/06 12:19:01;;;;;;;3.78;2.13;;;6.80;99.90;;;;;;4974810;28;20394;-85
2022/12/06 12:21:36;;;;;;;7.38;1.70;;;7.90;99.90;;;;;;4993983;28;20129;-85
2022/12/06 12:24:03;;;;;;;4.63;2.10;;;6.80;99.90;;;;;;4994020;28;20053;-85
2022/12/06 12:26:40;;;;;;;7.95;2.42;;;6.80;99.90;;;;;;4981924;28;20042;-85
2022/12/06 12:29:19;;;;;;;5.68;1.88;;;7.00;99.90;;;;;;4980993;28;20053;-86
2022/12/06 12:31:52;;;;;;;5.95;1.80;;;6.90;99.90;;;;;;4981912;28;20140;-85
2022/12/06 12:34:29;;;;;;;3.63;1.75;;;6.80;99.90;;;;;;4996834;28;20034;-85
2022/12/06 12:37:00;;;;;;;6.25;1.95;;;6.90;99.90;;;;;;4980397;28;20049;-84
2022/12/06 12:39:43;;;;;;;12.10;2.30;;;6.80;99.90;;;;;;4996751;28;20498;-85
2022/12/06 12:42:31;;;;;;;6.28;2.50;;;6.80;99.90;;;;;;4993964;28;20511;-85
2022/12/06 12:45:04;;;;;;;4.28;2.05;;;6.80;99.90;;;;;;4988234;28;20113;-85
2022/12/06 12:47:31;;;;;;;5.32;2.20;;;6.80;99.90;;;;;;4976243;28;20623;-85
2022/12/06 12:50:27;;;;;;;4.05;2.00;;;6.80;99.90;;;;;;4990883;28;20061;-85
2022/12/06 12:52:53;;;;;;;6.03;2.55;;;6.90;99.90;;;;;;4972395;28;20141;-85
2022/12/06 12:55:20;;;;;;;6.05;2.35;;;6.90;99.90;;;;;;4978199;28;20117;-85
2022/12/06 12:57:51;;;;;;;5.13;2.58;;;6.90;99.90;;;;;;4980501;28;20137;-85
2022/12/06 13:00:30;;;;;;;4.93;2.20;;;6.90;99.90;;;;;;4996661;28;20042;-85
2022/12/06 13:03:00;;;;;;;5.70;2.20;;;6.90;99.90;;;;;;4986936;28;20071;-86
2022/12/06 13:05:33;;;;;;;4.60;2.20;;;6.90;99.90;;;;;;4993038;28;20038;-85
2022/12/06 13:08:06;;;;;;;4.18;1.80;;;6.90;99.90;;;;;;4961388;28;20043;-85
2022/12/06 13:10:38;;;;;;;6.28;2.13;;;6.90;99.90;;;;;;4987306;28;20043;-85
2022/12/06 13:13:18;;;;;;;5.47;1.90;;;6.90;99.90;;;;;;4966300;28;20051;-85
2022/12/06 13:15:50;;;;;;;7.80;2.63;;;6.90;99.90;;;;;;4976392;28;20039;-85
2022/12/06 13:18:26;;;;;;;6.00;2.72;;;6.90;99.90;;;;;;4983241;28;20034;-85
2022/12/06 13:21:01;;;;;;;;;;;6.90;99.90;;;;;;4987795;28;20341;-84
2022/12/06 13:23:30;;;;;;;6.68;2.80;;;6.90;99.90;;;;;;4980705;28;19918;-84
2022/12/06 13:26:25;;;;;;;6.35;2.90;;;6.90;99.90;;;;;;4995581;28;20108;-85
2022/12/06 13:28:58;;;;;;;4.78;2.10;;;6.90;99.90;;;;;;4990406;28;20061;-85
2022/12/06 13:31:34;;;;;;;5.22;2.10;;;6.90;99.90;;;;;;4975831;28;20034;-85
2022/12/06 13:34:04;;;;;;;4.07;1.63;;;7.00;99.90;;;;;;4996167;28;20495;-85
2022/12/06 13:36:34;;;;;;;3.15;1.80;;;6.90;99.90;;;;;;4995335;28;20053;-87
2022/12/06 13:39:31;;;;;;;7.50;1.83;;;6.90;99.90;;;;;;4975946;28;20043;-85
2022/12/06 13:42:18;;;;;;;4.80;1.60;;;6.90;99.90;;;;;;4977572;28;20038;-84
2022/12/06 13:44:58;;;;;;;4.75;1.52;;;7.10;99.90;;;;;;4992198;28;20072;-85
2022/12/06 13:47:27;;;;;;;3.90;1.50;;;7.00;99.90;;;;;;4974983;28;20116;-85